Time;durP1;ratioP1;P1;durP2;ratioP2;P2;SDS_P1;SDS_P2;PMS_P1;PMS_P2;Temp;Humidity;BMP_temperature;BMP_pressure;BME280_temperature;BME280_humidity;BME280_pressure;Samples;Min_cycle;Max_cycle;Signal;HPM_P1;HPM_P2
2022/07/12 00:01:59;;;;;;;3.92;1.30;;;;;;;18.72;71.25;100816.63;5063319;28;20028;-82
2022/07/12 00:04:25;;;;;;;1.40;1.30;;;;;;;18.72;71.29;100808.59;5049756;28;20032;-82
2022/07/12 00:06:51;;;;;;;1.73;1.10;;;;;;;18.78;71.63;100815.88;5063222;28;20032;-82
2022/07/12 00:09:17;;;;;;;2.97;1.35;;;;;;;18.82;71.32;100819.00;5054582;28;20047;-82
2022/07/12 00:11:42;;;;;;;3.63;1.52;;;;;;;18.84;71.66;100823.13;5048306;28;20040;-82
2022/07/12 00:14:09;;;;;;;5.43;2.33;;;;;;;18.91;71.69;100825.91;5057386;28;20028;-82
2022/07/12 00:16:35;;;;;;;4.68;1.40;;;;;;;18.96;71.82;100819.97;5054377;28;20469;-82
2022/07/12 00:19:01;;;;;;;2.78;1.35;;;;;;;19.01;71.61;100806.84;5070728;28;20106;-82
2022/07/12 00:21:27;;;;;;;3.83;1.40;;;;;;;19.03;71.49;100804.78;5053141;28;20373;-81
2022/07/12 00:23:53;;;;;;;2.00;1.15;;;;;;;19.05;71.73;100809.94;5054226;28;20036;-82
2022/07/12 00:26:19;;;;;;;3.80;1.38;;;;;;;19.08;71.43;100801.50;5049444;28;20032;-82
2022/07/12 00:28:45;;;;;;;1.92;1.40;;;;;;;19.12;71.16;100805.50;5036487;28;20563;-76
2022/07/12 00:31:11;;;;;;;2.63;1.25;;;;;;;19.12;71.13;100800.16;5068975;28;20093;-76
2022/07/12 00:33:37;;;;;;;4.20;1.63;;;;;;;19.07;71.15;100791.84;5069291;28;20485;-82
2022/07/12 00:36:03;;;;;;;4.88;1.85;;;;;;;18.99;71.49;100797.31;5036492;28;20474;-82
2022/07/12 00:38:29;;;;;;;2.38;1.50;;;;;;;18.93;71.63;100805.13;5052936;28;20047;-82
2022/07/12 00:40:54;;;;;;;4.25;1.40;;;;;;;18.92;71.32;100806.13;5068337;28;20053;-82
2022/07/12 00:43:20;;;;;;;2.65;1.40;;;;;;;18.92;71.45;100808.78;5053548;28;20044;-82
2022/07/12 00:45:46;;;;;;;5.30;1.40;;;;;;;18.96;71.47;100802.06;5051770;28;20032;-82
2022/07/12 00:48:13;;;;;;;1.48;1.33;;;;;;;18.91;71.31;100796.44;5068042;28;20036;-82
2022/07/12 00:50:39;;;;;;;3.80;1.60;;;;;;;18.81;71.49;100806.63;5030133;28;20115;-82
2022/07/12 00:53:05;;;;;;;1.73;1.30;;;;;;;18.80;71.83;100803.13;5052204;28;20044;-82
2022/07/12 00:55:31;;;;;;;4.18;1.35;;;;;;;18.81;71.95;100806.63;5050776;28;20033;-82
2022/07/12 00:57:57;;;;;;;2.45;1.25;;;;;;;18.84;71.79;100814.28;5048525;28;20086;-82
2022/07/12 01:00:27;;;;;;;2.63;1.20;;;;;;;18.87;71.92;100824.63;5048380;28;20050;-82
2022/07/12 01:02:54;;;;;;;3.15;1.42;;;;;;;18.90;71.95;100818.06;5035067;28;20063;-82
2022/07/12 01:05:20;;;;;;;3.15;1.00;;;;;;;18.89;71.97;100811.03;5068167;28;20478;-82
2022/07/12 01:07:46;;;;;;;3.08;1.30;;;;;;;18.92;72.01;100816.03;5052440;28;20028;-82
2022/07/12 01:10:12;;;;;;;1.83;1.38;;;;;;;18.92;71.91;100821.38;5068666;28;20416;-82
2022/07/12 01:12:38;;;;;;;4.50;1.13;;;;;;;18.92;72.01;100816.81;5036153;28;20040;-82
2022/07/12 01:15:06;;;;;;;3.95;1.75;;;;;;;18.89;72.33;100797.66;5049797;28;20029;-82
2022/07/12 01:17:32;;;;;;;2.70;1.60;;;;;;;18.77;72.65;100791.97;5068375;28;20024;-82
2022/07/12 01:19:58;;;;;;;2.90;1.40;;;;;;;18.60;73.20;100793.03;5048533;28;20029;-82
2022/07/12 01:22:31;;;;;;;3.63;1.70;;;;;;;18.35;74.12;100784.50;5052335;28;20025;-82
2022/07/12 01:24:59;;;;;;;2.67;1.92;;;;;;;18.22;74.81;100803.91;5052654;28;20105;-82
2022/07/12 01:27:25;;;;;;;4.47;1.88;;;;;;;18.17;75.13;100806.31;5069274;28;20028;-82
2022/07/12 01:29:51;;;;;;;5.00;1.65;;;;;;;18.12;75.52;100803.38;5066592;28;20031;-82
2022/07/12 01:32:28;;;;;;;5.40;1.80;;;;;;;18.10;75.44;100800.84;5051839;28;20408;-82
2022/07/12 01:34:55;;;;;;;3.75;2.00;;;;;;;18.13;75.78;100818.38;5051680;28;20029;-81
2022/07/12 01:37:23;;;;;;;4.38;2.08;;;;;;;18.22;75.52;100822.63;5068672;28;20036;-82
2022/07/12 01:39:54;;;;;;;2.85;1.73;;;;;;;18.34;75.27;100831.88;5069917;28;20056;-82
2022/07/12 01:42:21;;;;;;;5.05;2.35;;;;;;;18.42;75.11;100822.06;5038364;28;20366;-81
2022/07/12 01:44:49;;;;;;;3.10;1.60;;;;;;;18.43;75.26;100810.31;5067644;28;20041;-82
2022/07/12 01:47:17;;;;;;;2.17;1.67;;;;;;;18.44;75.41;100809.31;5054434;28;20029;-82
2022/07/12 01:49:43;;;;;;;1.98;1.70;;;;;;;18.46;75.56;100828.69;5073042;28;20047;-83
2022/07/12 01:52:09;;;;;;;2.15;1.85;;;;;;;18.47;75.71;100839.19;5067065;28;20033;-83
2022/07/12 01:54:35;;;;;;;6.97;1.90;;;;;;;18.51;75.80;100838.81;5035613;28;20127;-83
2022/07/12 01:57:05;;;;;;;4.80;1.60;;;;;;;18.50;75.81;100824.63;5054180;28;20051;-83
2022/07/12 01:59:31;;;;;;;2.58;1.73;;;;;;;18.52;75.93;100827.13;5054447;28;20095;-83
2022/07/12 02:01:57;;;;;;;3.38;1.42;;;;;;;18.55;76.08;100824.91;5055444;28;20033;-83
2022/07/12 02:04:24;;;;;;;2.85;1.83;;;;;;;18.55;76.24;100824.06;5055152;28;20399;-83
2022/07/12 02:06:50;;;;;;;3.30;1.75;;;;;;;18.50;76.59;100831.81;5072312;28;20028;-83
2022/07/12 02:09:16;;;;;;;4.03;1.85;;;;;;;18.50;76.98;100834.50;5055682;28;20032;-83
2022/07/12 02:11:44;;;;;;;2.08;1.63;;;;;;;18.47;77.04;100836.53;5037872;28;20037;-82
2022/07/12 02:14:12;;;;;;;2.55;1.70;;;;;;;18.44;77.44;100834.22;5071225;28;20028;-83
2022/07/12 02:16:38;;;;;;;1.88;1.60;;;;;;;18.42;77.39;100833.59;5074035;28;20041;-83
2022/07/12 02:19:04;;;;;;;2.10;1.70;;;;;;;18.44;77.46;100836.09;5072881;28;20090;-83
2022/07/12 02:21:30;;;;;;;2.97;1.60;;;;;;;18.44;77.38;100858.31;5051922;28;20401;-83
2022/07/12 02:23:56;;;;;;;5.50;1.83;;;;;;;18.40;77.64;100851.69;5052660;28;20082;-83
2022/07/12 02:26:22;;;;;;;1.33;1.20;;;;;;;18.39;77.78;100844.69;5071303;28;20057;-83
2022/07/12 02:28:49;;;;;;;4.75;1.83;;;;;;;18.40;77.82;100842.81;5062375;28;20128;-83
2022/07/12 02:31:15;;;;;;;2.35;1.70;;;;;;;18.39;77.94;100839.31;5069053;28;20067;-83
2022/07/12 02:33:41;;;;;;;4.80;1.63;;;;;;;18.37;78.18;100837.84;5038746;28;20033;-82
2022/07/12 02:36:07;;;;;;;2.70;2.30;;;;;;;18.32;78.11;100823.19;5053046;28;20028;-82
2022/07/12 02:38:33;;;;;;;2.65;1.60;;;;;;;18.21;78.39;100826.31;5039818;28;20033;-82
2022/07/12 02:40:59;;;;;;;6.70;2.20;;;;;;;18.18;78.82;100824.84;5047189;28;20036;-82
2022/07/12 02:43:26;;;;;;;2.90;1.98;;;;;;;18.16;78.95;100823.38;5071740;28;20465;-75
2022/07/12 02:45:55;;;;;;;2.20;1.80;;;;;;;18.12;78.95;100820.25;5022235;28;20039;-75
2022/07/12 02:48:21;;;;;;;7.78;2.20;;;;;;;18.09;79.19;100810.72;5056220;28;20090;-83
2022/07/12 02:50:47;;;;;;;4.82;2.22;;;;;;;18.01;79.08;100805.47;5062904;28;20033;-82
2022/07/12 02:53:13;;;;;;;3.75;2.65;;;;;;;17.91;79.46;100788.88;5051408;28;20036;-82
2022/07/12 02:55:39;;;;;;;4.05;2.00;;;;;;;17.81;80.11;100781.94;5048139;28;20029;-82
2022/07/12 02:58:05;;;;;;;3.47;2.00;;;;;;;17.76;80.32;100795.03;5036206;28;20481;-82
2022/07/12 03:00:32;;;;;;;1.90;1.80;;;;;;;17.78;80.47;100800.19;5064526;28;20120;-82
2022/07/12 03:02:58;;;;;;;4.85;2.00;;;;;;;17.80;80.53;100803.53;5051689;28;20041;-82
2022/07/12 03:05:24;;;;;;;2.75;1.95;;;;;;;17.82;80.57;100798.84;5051518;28;20054;-82
2022/07/12 03:07:50;;;;;;;3.92;2.08;;;;;;;17.81;80.56;100803.34;5046122;28;20406;-82
2022/07/12 03:10:16;;;;;;;6.50;2.70;;;;;;;17.80;80.75;100806.19;5049222;28;20032;-82
2022/07/12 03:12:42;;;;;;;2.60;2.00;;;;;;;17.80;80.78;100796.34;5060009;28;20024;-82
2022/07/12 03:15:08;;;;;;;3.30;2.33;;;;;;;17.84;80.91;100804.81;5018920;28;20067;-82
2022/07/12 03:17:34;;;;;;;4.15;2.47;;;;;;;17.82;81.07;100817.53;5050112;28;20037;-82
2022/07/12 03:20:00;;;;;;;3.40;2.58;;;;;;;17.84;81.28;100820.84;5040776;28;20497;-82
2022/07/12 03:22:26;;;;;;;3.10;2.00;;;;;;;17.85;81.18;100827.88;5033003;28;20111;-82
2022/07/12 03:24:52;;;;;;;4.60;2.30;;;;;;;17.83;81.32;100833.41;5050835;28;20218;-83
2022/07/12 03:27:18;;;;;;;3.58;2.63;;;;;;;17.83;81.31;100833.41;5048520;28;20461;-82
2022/07/12 03:29:44;;;;;;;6.22;2.33;;;;;;;17.82;81.66;100831.72;5031692;28;20033;-82
2022/07/12 03:32:10;;;;;;;7.85;2.40;;;;;;;17.85;81.86;100815.31;5048367;28;20029;-83
2022/07/12 03:34:36;;;;;;;3.35;2.50;;;;;;;17.88;81.69;100819.50;5049288;28;20029;-82
2022/07/12 03:37:03;;;;;;;3.85;2.15;;;;;;;17.90;81.80;100812.09;5044608;28;20037;-83
2022/07/12 03:39:29;;;;;;;9.32;3.03;;;;;;;17.91;81.74;100811.09;5047148;28;20060;-83
2022/07/12 03:41:55;;;;;;;5.68;2.22;;;;;;;17.93;81.73;100813.59;5034152;28;20140;-82
2022/07/12 03:44:21;;;;;;;8.80;2.00;;;;;;;17.95;81.96;100816.88;5063071;28;20116;-82
2022/07/12 03:46:47;;;;;;;2.83;2.10;;;;;;;17.97;82.12;100810.34;5061175;28;20086;-82
2022/07/12 03:49:14;;;;;;;5.20;2.38;;;;;;;17.98;81.91;100808.53;5066807;28;20481;-83
2022/07/12 03:51:40;;;;;;;3.88;2.33;;;;;;;17.98;81.76;100803.16;5065555;28;20549;-82
2022/07/12 03:54:09;;;;;;;3.47;2.20;;;;;;;17.98;81.78;100797.81;5052752;28;20025;-83
2022/07/12 03:59:20;;;;;;;4.15;2.47;;;;;;;17.91;81.92;100788.88;5062763;28;20031;-82
2022/07/12 04:01:45;;;;;;;9.65;2.22;;;;;;;17.88;82.03;100791.91;5053366;28;20561;-82
2022/07/12 04:04:11;;;;;;;4.82;2.85;;;;;;;17.88;82.15;100794.56;5069119;28;20028;-82
2022/07/12 04:06:38;;;;;;;4.32;1.88;;;;;;;17.90;82.13;100793.38;5051368;28;20032;-83
2022/07/12 04:09:05;;;;;;;2.83;2.45;;;;;;;17.92;81.92;100788.69;5069206;28;20041;-82
2022/07/12 04:11:32;;;;;;;4.90;2.72;;;;;;;17.91;81.87;100781.69;5052526;28;20032;-82
2022/07/12 04:13:58;;;;;;;5.35;2.08;;;;;;;17.93;82.03;100774.28;5069828;28;20111;-82
2022/07/12 04:16:24;;;;;;;5.40;2.83;;;;;;;17.94;82.04;100773.28;5049372;28;20025;-82
2022/07/12 04:18:49;;;;;;;3.35;2.20;;;;;;;17.93;81.94;100760.09;5051308;28;20476;-82
2022/07/12 04:21:15;;;;;;;12.05;3.95;;;;;;;17.90;82.16;100753.25;5068733;28;20393;-82
2022/07/12 04:23:41;;;;;;;4.72;2.22;;;;;;;17.91;82.07;100754.09;5052382;28;20086;-82
2022/07/12 04:26:07;;;;;;;6.30;2.20;;;;;;;17.94;81.96;100767.09;5051189;28;20101;-82
2022/07/12 04:28:34;;;;;;;4.18;1.92;;;;;;;17.93;81.90;100766.25;5037021;28;20462;-82
2022/07/12 04:31:00;;;;;;;4.63;2.50;;;;;;;17.89;81.94;100761.47;5053190;28;20035;-82
2022/07/12 04:33:26;;;;;;;2.63;1.92;;;;;;;17.82;81.94;100775.56;5069841;28;20021;-82
2022/07/12 04:35:52;;;;;;;3.25;2.47;;;;;;;17.75;82.22;100776.50;5067916;28;20060;-82
2022/07/12 04:38:18;;;;;;;2.22;1.95;;;;;;;17.67;82.48;100772.91;5051004;28;20400;-82
2022/07/12 04:40:44;;;;;;;5.85;2.53;;;;;;;17.65;82.60;100777.59;5067183;28;20025;-82
2022/07/12 04:43:09;;;;;;;5.95;2.40;;;;;;;17.61;82.87;100770.97;5060407;28;20497;-82
2022/07/12 04:45:35;;;;;;;5.38;2.40;;;;;;;17.54;82.91;100786.06;5062936;28;20527;-82
2022/07/12 04:48:01;;;;;;;19.27;2.58;;;;;;;17.54;83.02;100788.75;5061558;28;20439;-82
2022/07/12 04:50:27;;;;;;;5.03;2.50;;;;;;;17.52;83.30;100793.47;5045631;28;20045;-82
2022/07/12 04:52:53;;;;;;;4.95;2.15;;;;;;;17.50;83.29;100796.31;5049850;28;20033;-82
2022/07/12 04:55:19;;;;;;;3.78;2.30;;;;;;;17.52;83.40;100796.94;5050879;28;20040;-83
2022/07/12 04:57:44;;;;;;;2.67;2.15;;;;;;;17.56;83.21;100797.41;5051973;28;20024;-82
2022/07/12 05:00:11;;;;;;;4.65;2.45;;;;;;;17.58;83.14;100800.75;5051593;28;20043;-82
2022/07/12 05:02:36;;;;;;;5.00;2.60;;;;;;;17.60;83.13;100804.88;5058377;28;20031;-75
2022/07/12 05:05:03;;;;;;;6.57;2.53;;;;;;;17.56;82.94;100810.78;5052033;28;20024;-75
2022/07/12 05:07:29;;;;;;;3.55;2.33;;;;;;;17.53;83.25;100816.50;5052769;28;20041;-82
2022/07/12 05:09:55;;;;;;;4.63;2.63;;;;;;;17.52;83.24;100821.00;5066485;28;20760;-82
2022/07/12 05:12:21;;;;;;;4.28;2.67;;;;;;;17.47;83.48;100815.38;5050948;28;20040;-82
2022/07/12 05:14:46;;;;;;;6.28;2.03;;;;;;;17.48;83.76;100819.69;5053115;28;20524;-82
2022/07/12 05:17:12;;;;;;;5.43;2.40;;;;;;;17.52;83.78;100818.31;5068740;28;20480;-83
2022/07/12 05:19:38;;;;;;;3.75;2.65;;;;;;;17.55;83.43;100817.94;5072297;28;20484;-82
2022/07/12 05:22:04;;;;;;;5.05;2.80;;;;;;;17.59;83.79;100829.13;5025849;28;20098;-82
2022/07/12 05:24:30;;;;;;;4.60;2.28;;;;;;;17.61;83.57;100830.59;5051882;28;20504;-82
2022/07/12 05:26:56;;;;;;;2.00;1.83;;;;;;;17.59;83.29;100823.78;5040562;28;20036;-82
2022/07/12 05:29:22;;;;;;;2.70;1.70;;;;;;;17.54;83.26;100834.16;5057667;28;20111;-82
2022/07/12 05:31:48;;;;;;;3.53;1.80;;;;;;;17.51;83.21;100839.88;5056827;28;20416;-82
2022/07/12 05:34:14;;;;;;;2.63;2.20;;;;;;;17.44;83.34;100843.28;4993607;28;20116;-82
2022/07/12 05:36:40;;;;;;;8.55;1.85;;;;;;;17.42;83.51;100849.81;5022362;28;20029;-82
2022/07/12 05:39:06;;;;;;;1.95;1.80;;;;;;;17.38;83.47;100857.34;5073253;28;20021;-82
2022/07/12 05:41:32;;;;;;;6.43;1.83;;;;;;;17.39;83.55;100853.66;5056822;28;20078;-82
2022/07/12 05:43:58;;;;;;;2.05;1.70;;;;;;;17.40;83.18;100850.00;5052543;28;20029;-82
2022/07/12 05:46:24;;;;;;;1.98;1.70;;;;;;;17.40;83.35;100849.16;5063931;28;20047;-82
2022/07/12 05:48:50;;;;;;;2.75;1.80;;;;;;;17.41;82.90;100859.66;5054694;28;20060;-82
2022/07/12 05:54:00;;;;;;;4.85;1.58;;;;;;;17.36;82.90;100841.50;5068349;28;20043;-82
2022/07/12 05:56:25;;;;;;;2.03;1.80;;;;;;;17.32;83.08;100844.72;5073177;28;20041;-82
2022/07/12 05:58:52;;;;;;;5.10;1.80;;;;;;;17.27;83.18;100844.41;5056082;28;20043;-82
2022/07/12 06:01:18;;;;;;;2.63;1.88;;;;;;;17.23;83.46;100850.13;5067467;28;20775;-83
2022/07/12 06:03:44;;;;;;;3.28;1.92;;;;;;;17.20;83.44;100844.31;5055348;28;20079;-82
2022/07/12 06:06:10;;;;;;;5.25;2.47;;;;;;;17.19;83.54;100840.81;5051466;28;20029;-83
2022/07/12 06:08:35;;;;;;;3.05;1.70;;;;;;;17.19;83.49;100846.16;5054896;28;20032;-83
2022/07/12 06:11:01;;;;;;;2.88;1.60;;;;;;;17.18;83.66;100855.19;5071033;28;20033;-83
2022/07/12 06:13:28;;;;;;;2.80;1.80;;;;;;;17.14;83.58;100861.06;5054421;28;20037;-83
2022/07/12 06:15:58;;;;;;;2.20;1.77;;;;;;;17.09;83.84;100856.22;5052572;28;20032;-82
2022/07/12 06:18:24;;;;;;;3.55;1.80;;;;;;;17.02;84.20;100852.59;5054256;28;20127;-82
2022/07/12 06:20:50;;;;;;;2.13;1.58;;;;;;;16.96;84.44;100846.94;5039023;28;20021;-83
2022/07/12 06:23:15;;;;;;;1.73;1.60;;;;;;;16.93;84.30;100841.94;5052972;28;20091;-75
2022/07/12 06:25:41;;;;;;;5.88;1.67;;;;;;;16.91;84.74;100848.47;5071237;28;20427;-75
2022/07/12 06:28:07;;;;;;;3.85;2.03;;;;;;;16.89;84.92;100861.16;5037488;28;20036;-82
2022/07/12 06:30:33;;;;;;;1.73;1.58;;;;;;;16.90;84.78;100865.53;5055570;28;20081;-82
2022/07/12 06:32:59;;;;;;;2.55;2.10;;;;;;;16.88;84.93;100859.53;5069777;28;20035;-82
2022/07/12 06:35:25;;;;;;;2.70;2.15;;;;;;;16.91;84.75;100864.50;5054501;28;20065;-82
2022/07/12 06:37:51;;;;;;;2.83;1.73;;;;;;;16.94;84.95;100854.31;5070933;28;20032;-75
2022/07/12 06:40:17;;;;;;;3.53;2.10;;;;;;;16.99;84.77;100854.59;5067566;28;20031;-76
2022/07/12 06:42:43;;;;;;;2.97;1.90;;;;;;;17.08;84.67;100857.25;5054406;28;20040;-82
2022/07/12 06:45:10;;;;;;;2.97;1.70;;;;;;;17.16;84.14;100851.84;5070644;28;20397;-83
2022/07/12 06:47:36;;;;;;;5.80;2.10;;;;;;;17.21;84.20;100835.28;5052890;28;20031;-83
2022/07/12 06:50:03;;;;;;;4.03;2.08;;;;;;;17.25;84.06;100831.25;5041881;28;20044;-82
2022/07/12 06:52:30;;;;;;;3.35;2.03;;;;;;;17.26;84.23;100846.28;5052972;28;20021;-82
2022/07/12 06:54:56;;;;;;;4.53;1.67;;;;;;;17.32;84.05;100853.56;5059803;28;20075;-82
2022/07/12 06:57:22;;;;;;;6.68;2.20;;;;;;;17.39;84.19;100853.66;5054297;28;20119;-82
2022/07/12 06:59:48;;;;;;;3.45;2.00;;;;;;;17.41;84.03;100859.66;5051450;28;20029;-82
2022/07/12 07:02:15;;;;;;;2.42;1.95;;;;;;;17.44;84.39;100866.50;5067125;28;20028;-82
2022/07/12 07:04:41;;;;;;;4.35;2.25;;;;;;;17.51;84.41;100862.09;5068121;28;20095;-82
2022/07/12 07:07:06;;;;;;;3.47;2.30;;;;;;;17.56;84.34;100866.91;5052330;28;20054;-82
2022/07/12 07:09:34;;;;;;;2.20;2.03;;;;;;;17.58;84.23;100857.69;5054758;28;20101;-83
2022/07/12 07:12:00;;;;;;;3.20;2.08;;;;;;;17.58;84.30;100838.97;5067571;28;20477;-83
2022/07/12 07:14:27;;;;;;;3.65;2.40;;;;;;;17.53;84.50;100841.38;5065569;28;20485;-83
2022/07/12 07:16:53;;;;;;;3.45;2.10;;;;;;;17.47;85.16;100834.09;5051622;28;20444;-82
2022/07/12 07:19:19;;;;;;;4.20;2.33;;;;;;;17.33;85.47;100835.69;5066146;28;20032;-82
2022/07/12 07:21:45;;;;;;;3.55;2.03;;;;;;;17.21;86.33;100840.63;5052769;28;20047;-82
2022/07/12 07:24:11;;;;;;;5.35;2.60;;;;;;;17.14;86.83;100851.19;5049810;28;20051;-83
2022/07/12 07:26:36;;;;;;;5.78;2.67;;;;;;;17.12;87.05;100850.53;5054130;28;20029;-82
2022/07/12 07:31:47;;;;;;;4.28;2.50;;;;;;;17.11;87.22;100827.50;5064476;28;20024;-82
2022/07/12 07:34:13;;;;;;;4.95;2.80;;;;;;;17.15;87.51;100833.34;5027579;28;20110;-83
2022/07/12 07:36:39;;;;;;;8.57;2.80;;;;;;;17.16;87.69;100843.84;5054111;28;20028;-82
2022/07/12 07:39:05;;;;;;;5.65;2.83;;;;;;;17.23;87.79;100847.44;5068165;28;20032;-82
2022/07/12 07:41:31;;;;;;;6.65;2.58;;;;;;;17.31;87.52;100864.44;5069068;28;20036;-82
2022/07/12 07:43:56;;;;;;;6.90;3.05;;;;;;;17.42;87.51;100863.19;5049337;28;20042;-82
2022/07/12 07:46:22;;;;;;;5.32;2.67;;;;;;;17.53;86.94;100857.41;5050004;28;20044;-82
2022/07/12 07:48:48;;;;;;;7.13;2.75;;;;;;;17.59;87.03;100855.84;5056002;28;20033;-82
2022/07/12 07:51:14;;;;;;;3.88;2.70;;;;;;;17.65;86.92;100854.28;5051041;28;20500;-82
2022/07/12 07:53:40;;;;;;;3.03;2.70;;;;;;;17.70;86.86;100855.41;5051821;28;20090;-82
2022/07/12 07:56:06;;;;;;;5.05;3.00;;;;;;;17.72;86.57;100856.06;5070049;28;20035;-82
2022/07/12 07:58:32;;;;;;;6.85;2.47;;;;;;;17.76;86.87;100845.81;5067535;28;20025;-82
2022/07/12 08:00:58;;;;;;;4.75;2.60;;;;;;;17.84;86.64;100850.25;5066314;28;20035;-82
2022/07/12 08:03:25;;;;;;;4.72;2.65;;;;;;;17.89;86.50;100865.75;5033291;28;20036;-82
2022/07/12 08:05:51;;;;;;;3.75;2.85;;;;;;;17.92;86.33;100866.22;5050395;28;20164;-82
2022/07/12 08:08:17;;;;;;;5.18;2.70;;;;;;;17.97;86.40;100863.00;5069120;28;20067;-82
2022/07/12 08:10:43;;;;;;;4.50;3.20;;;;;;;18.01;86.45;100861.63;5049836;28;20377;-82
2022/07/12 08:13:09;;;;;;;3.35;3.08;;;;;;;18.08;86.26;100867.06;5036898;28;20457;-82
2022/07/12 08:15:35;;;;;;;8.18;3.00;;;;;;;18.15;86.19;100894.78;5053160;28;20031;-82
2022/07/12 08:18:03;;;;;;;4.95;3.22;;;;;;;18.23;86.40;100886.66;5071270;28;20052;-82
2022/07/12 08:20:29;;;;;;;5.93;2.83;;;;;;;18.33;86.20;100877.53;5043742;28;21744;-82
2022/07/12 08:22:55;;;;;;;6.20;3.00;;;;;;;18.39;86.22;100873.28;5053578;28;20037;-82
2022/07/12 08:25:21;;;;;;;4.22;2.30;;;;;;;18.38;86.25;100872.44;5063375;28;20048;-82
2022/07/12 08:27:47;;;;;;;6.35;2.72;;;;;;;18.40;85.79;100890.97;5052228;28;20112;-82
2022/07/12 08:30:14;;;;;;;3.30;2.67;;;;;;;18.41;85.94;100892.66;5068511;28;20024;-82
2022/07/12 08:32:44;;;;;;;3.53;2.72;;;;;;;18.44;85.70;100882.41;5050525;28;20346;-82
2022/07/12 08:35:10;;;;;;;3.42;2.38;;;;;;;18.42;85.80;100870.22;5048766;28;20131;-83
2022/07/12 08:37:36;;;;;;;3.50;2.60;;;;;;;18.38;85.92;100880.47;5052510;28;20162;-83
2022/07/12 08:40:03;;;;;;;6.45;2.22;;;;;;;18.34;86.28;100868.47;5050713;28;20048;-83
2022/07/12 08:42:29;;;;;;;5.82;2.40;;;;;;;18.33;86.38;100889.06;5034698;28;20135;-83
2022/07/12 08:44:55;;;;;;;3.15;2.53;;;;;;;18.38;86.28;100891.16;5069167;28;20635;-83
2022/07/12 08:47:21;;;;;;;4.70;2.40;;;;;;;18.42;86.18;100897.84;5051396;28;20035;-83
2022/07/12 08:50:19;;;;;;;2.90;2.30;;;;;;;18.48;85.92;100901.59;5053138;28;20040;-83
2022/07/12 08:52:53;;;;;;;6.18;2.83;;;;;;;18.52;86.07;100886.00;5056043;28;20078;-83
2022/07/12 08:55:36;;;;;;;6.30;2.50;;;;;;;18.54;85.81;100881.31;5071075;28;20036;-83
2022/07/12 08:58:05;;;;;;;3.08;2.22;;;;;;;18.54;86.00;100884.00;5074138;28;20043;-83
2022/07/12 09:00:32;;;;;;;5.55;2.35;;;;;;;18.56;85.93;100879.25;4991453;28;20477;-83
2022/07/12 09:03:00;;;;;;;4.30;2.45;;;;;;;18.56;85.84;100885.44;5073864;28;20401;-83
2022/07/12 09:05:31;;;;;;;4.80;2.33;;;;;;;18.59;85.65;100889.59;5054297;28;20075;-83
2022/07/12 09:08:03;;;;;;;4.38;2.95;;;;;;;18.58;85.43;100887.94;5072308;28;20036;-83
2022/07/12 09:10:28;;;;;;;6.07;3.28;;;;;;;18.60;85.57;100885.91;5073181;28;20021;-83
2022/07/12 09:12:54;;;;;;;5.38;2.63;;;;;;;18.60;85.31;100891.28;5037252;28;20029;-82
2022/07/12 09:15:23;;;;;;;4.05;2.45;;;;;;;18.65;85.52;100880.81;5055191;28;20070;-83
2022/07/12 09:18:12;;;;;;;5.70;2.50;;;;;;;18.70;85.44;100885.59;5029316;28;20389;-82
2022/07/12 09:20:40;;;;;;;2.20;2.00;;;;;;;18.74;85.57;100884.22;5038106;28;20052;-82
2022/07/12 09:23:09;;;;;;;2.58;2.35;;;;;;;18.84;85.47;100882.06;5054460;28;20066;-83
2022/07/12 09:25:37;;;;;;;2.50;2.30;;;;;;;18.96;85.39;100885.09;5068923;28;20025;-82
2022/07/12 09:28:06;;;;;;;5.97;2.63;;;;;;;19.08;85.00;100887.25;5070339;28;20032;-82
2022/07/12 09:30:34;;;;;;;4.32;2.35;;;;;;;19.16;84.77;100895.19;5053188;28;20389;-83
2022/07/12 09:36:10;;;;;;;5.18;2.55;;;;;;;19.37;83.70;100890.88;5059156;28;20059;-83
2022/07/12 09:38:37;;;;;;;14.98;2.92;;;;;;;19.46;83.57;100891.56;5066316;28;20415;-83
2022/07/12 09:41:07;;;;;;;3.00;2.10;;;;;;;19.55;83.15;100894.94;5052851;28;20426;-83
2022/07/12 09:43:34;;;;;;;8.57;2.22;;;;;;;19.58;82.66;100900.75;5050904;28;20036;-75
2022/07/12 09:46:00;;;;;;;23.80;3.17;;;;;;;19.63;82.54;100896.66;5048451;28;20031;-76
2022/07/12 09:48:28;;;;;;;5.22;2.38;;;;;;;19.65;82.18;100894.63;5063674;28;20481;-83
2022/07/12 09:50:57;;;;;;;6.60;2.55;;;;;;;19.65;81.90;100892.75;5066540;28;20072;-82
2022/07/12 09:53:37;;;;;;;2.75;2.22;;;;;;;19.69;81.75;100903.91;5048048;28;20408;-83
2022/07/12 09:56:06;;;;;;;4.07;2.42;;;;;;;19.73;81.75;100899.00;5048443;28;20494;-83
2022/07/12 09:58:52;;;;;;;2.97;1.90;;;;;;;19.78;81.16;100907.31;5045675;28;20071;-83
2022/07/12 10:01:19;;;;;;;6.38;2.13;;;;;;;19.85;81.29;100916.22;5046932;28;20075;-83
2022/07/12 10:03:46;;;;;;;5.50;2.63;;;;;;;19.93;80.82;100907.19;5066093;28;20071;-82
2022/07/12 10:06:16;;;;;;;7.75;2.08;;;;;;;19.96;80.47;100907.66;5051006;28;20410;-83
2022/07/12 10:08:43;;;;;;;7.15;2.40;;;;;;;20.07;80.30;100910.81;5047780;28;20484;-82
2022/07/12 10:11:13;;;;;;;2.90;1.90;;;;;;;20.20;79.91;100908.25;5065554;28;20108;-83
2022/07/12 10:13:39;;;;;;;2.88;1.92;;;;;;;20.27;79.47;100902.09;5062357;28;20029;-83
2022/07/12 10:16:08;;;;;;;4.95;1.58;;;;;;;20.33;78.93;100903.97;5048631;28;20032;-83
2022/07/12 10:18:34;;;;;;;3.85;2.10;;;;;;;20.37;78.90;100899.84;5033981;28;20439;-83
2022/07/12 10:21:00;;;;;;;4.53;1.60;;;;;;;20.32;78.15;100900.44;5063276;28;20029;-82
2022/07/12 10:23:25;;;;;;;3.65;1.63;;;;;;;20.30;77.85;100920.47;5051787;28;20083;-76
2022/07/12 10:25:51;;;;;;;7.47;1.70;;;;;;;20.28;77.64;100907.25;5045946;28;20501;-75
2022/07/12 10:28:17;;;;;;;3.20;1.60;;;;;;;20.32;77.44;100900.44;5045783;28;20032;-76
2022/07/12 10:30:45;;;;;;;5.10;1.73;;;;;;;20.34;76.78;100910.97;5048187;28;20030;-75
2022/07/12 10:33:22;;;;;;;2.33;1.20;;;;;;;20.29;76.07;100905.41;5043575;28;20086;-83
2022/07/12 10:35:59;;;;;;;2.65;1.23;;;;;;;20.28;75.38;100915.31;5045664;28;20475;-83
2022/07/12 10:38:25;;;;;;;1.80;1.20;;;;;;;20.31;75.48;100908.69;5050568;28;20132;-83
2022/07/12 10:40:52;;;;;;;3.65;1.20;;;;;;;20.35;75.04;100901.09;5050659;28;20405;-82
2022/07/12 10:43:22;;;;;;;1.92;1.40;;;;;;;20.34;74.71;100902.94;5031450;28;20037;-83
2022/07/12 10:45:49;;;;;;;2.90;1.10;;;;;;;20.38;74.65;100898.84;5035351;28;20048;-83
2022/07/12 10:48:15;;;;;;;2.65;1.10;;;;;;;20.50;74.50;100904.47;5050886;28;20037;-83
2022/07/12 10:50:41;;;;;;;4.65;1.13;;;;;;;20.56;74.31;100905.53;5050538;28;20053;-82
2022/07/12 10:53:33;;;;;;;3.33;1.30;;;;;;;20.59;73.21;100902.47;5048630;28;20048;-82
2022/07/12 10:56:25;;;;;;;4.68;1.45;;;;;;;20.65;72.98;100900.81;5050415;28;20147;-82
2022/07/12 10:58:56;;;;;;;1.98;1.25;;;;;;;20.77;72.92;100899.19;5034083;28;20068;-75
2022/07/12 11:01:25;;;;;;;2.47;1.13;;;;;;;20.89;72.46;100901.31;5048144;28;20064;-76
2022/07/12 11:03:54;;;;;;;8.18;1.27;;;;;;;20.99;72.10;100909.03;5030629;28;20048;-76
2022/07/12 11:06:28;;;;;;;7.60;0.98;;;;;;;21.09;71.89;100905.94;5049468;28;20032;-76
2022/07/12 11:08:55;;;;;;;1.80;1.15;;;;;;;21.11;71.64;100899.34;5047433;28;20051;-83
2022/07/12 11:11:23;;;;;;;1.77;1.10;;;;;;;21.16;71.20;100907.63;5064550;28;20029;-83
2022/07/12 11:13:49;;;;;;;2.28;1.50;;;;;;;21.22;71.14;100902.44;5063898;28;20040;-76
2022/07/12 11:16:16;;;;;;;2.72;0.95;;;;;;;21.32;70.56;100903.69;5047120;28;20053;-76
2022/07/12 11:18:43;;;;;;;1.65;0.90;;;;;;;21.54;69.88;100908.06;5063551;28;20535;-76
2022/07/12 11:21:09;;;;;;;2.13;1.45;;;;;;;21.68;69.83;100911.56;5048020;28;20037;-76
2022/07/12 11:23:35;;;;;;;2.08;1.27;;;;;;;21.73;68.97;100900.19;5062175;28;20033;-83
2022/07/12 11:26:03;;;;;;;1.73;1.00;;;;;;;21.71;67.91;100905.78;5058787;28;20048;-83
2022/07/12 11:28:30;;;;;;;4.03;1.13;;;;;;;21.69;68.13;100903.28;5041693;28;20498;-83
2022/07/12 11:31:07;;;;;;;1.30;0.95;;;;;;;21.69;68.09;100895.22;5045283;28;20039;-83
2022/07/12 11:33:44;;;;;;;;;;;;;;;21.54;66.92;100908.06;5133530;27;20146;-82
2022/07/12 11:36:11;;;;;;;2.70;1.05;;;;;;;21.58;68.31;100917.34;5118557;27;19911;-83